sensor_id;sensor_type;location;lat;lon;timestamp;P1;durP1;ratioP1;P2;durP2;ratioP2
31386;SDS011;18017;50.124;8.688;2022-07-23T00:01:22;3.25;;;1.60;;
31386;SDS011;18017;50.124;8.688;2022-07-23T00:03:48;3.05;;;1.42;;
31386;SDS011;18017;50.124;8.688;2022-07-23T00:06:15;5.82;;;1.75;;
31386;SDS011;18017;50.124;8.688;2022-07-23T00:08:40;4.45;;;1.80;;
31386;SDS011;18017;50.124;8.688;2022-07-23T00:11:07;2.78;;;1.65;;
31386;SDS011;18017;50.124;8.688;2022-07-23T00:13:33;3.95;;;2.22;;
31386;SDS011;18017;50.124;8.688;2022-07-23T00:15:58;3.67;;;1.55;;
31386;SDS011;18017;50.124;8.688;2022-07-23T00:18:24;5.60;;;1.65;;
31386;SDS011;18017;50.124;8.688;2022-07-23T00:20:49;3.63;;;1.67;;
31386;SDS011;18017;50.124;8.688;2022-07-23T00:23:16;2.28;;;1.50;;
31386;SDS011;18017;50.124;8.688;2022-07-23T00:25:41;5.50;;;1.65;;
31386;SDS011;18017;50.124;8.688;2022-07-23T00:28:07;6.28;;;1.83;;
31386;SDS011;18017;50.124;8.688;2022-07-23T00:30:33;2.15;;;1.50;;
31386;SDS011;18017;50.124;8.688;2022-07-23T00:33:00;2.22;;;1.40;;
31386;SDS011;18017;50.124;8.688;2022-07-23T00:35:29;3.30;;;1.70;;
31386;SDS011;18017;50.124;8.688;2022-07-23T00:37:57;3.05;;;1.75;;
31386;SDS011;18017;50.124;8.688;2022-07-23T00:40:23;2.85;;;1.80;;
31386;SDS011;18017;50.124;8.688;2022-07-23T00:42:49;3.92;;;1.60;;
31386;SDS011;18017;50.124;8.688;2022-07-23T00:45:15;6.28;;;1.88;;
31386;SDS011;18017;50.124;8.688;2022-07-23T00:47:42;7.10;;;2.00;;
31386;SDS011;18017;50.124;8.688;2022-07-23T00:50:08;3.30;;;1.55;;
31386;SDS011;18017;50.124;8.688;2022-07-23T00:52:35;4.80;;;1.92;;
31386;SDS011;18017;50.124;8.688;2022-07-23T00:55:02;3.65;;;1.80;;
31386;SDS011;18017;50.124;8.688;2022-07-23T00:57:29;5.07;;;2.03;;
31386;SDS011;18017;50.124;8.688;2022-07-23T00:59:55;6.03;;;1.77;;
31386;SDS011;18017;50.124;8.688;2022-07-23T01:02:22;5.72;;;1.55;;
31386;SDS011;18017;50.124;8.688;2022-07-23T01:04:49;4.97;;;1.80;;
31386;SDS011;18017;50.124;8.688;2022-07-23T01:07:14;5.82;;;1.83;;
31386;SDS011;18017;50.124;8.688;2022-07-23T01:09:41;7.13;;;1.92;;
31386;SDS011;18017;50.124;8.688;2022-07-23T01:12:08;3.25;;;1.98;;
31386;SDS011;18017;50.124;8.688;2022-07-23T01:14:33;1.95;;;1.40;;
31386;SDS011;18017;50.124;8.688;2022-07-23T01:16:59;7.72;;;1.92;;
31386;SDS011;18017;50.124;8.688;2022-07-23T01:19:24;5.25;;;1.70;;
31386;SDS011;18017;50.124;8.688;2022-07-23T01:21:51;4.40;;;1.63;;
31386;SDS011;18017;50.124;8.688;2022-07-23T01:24:18;2.90;;;1.40;;
31386;SDS011;18017;50.124;8.688;2022-07-23T01:26:45;5.30;;;1.60;;
31386;SDS011;18017;50.124;8.688;2022-07-23T01:29:12;5.20;;;1.85;;
31386;SDS011;18017;50.124;8.688;2022-07-23T01:31:38;2.65;;;1.60;;
31386;SDS011;18017;50.124;8.688;2022-07-23T01:34:05;5.15;;;1.90;;
31386;SDS011;18017;50.124;8.688;2022-07-23T01:36:32;3.08;;;1.48;;
31386;SDS011;18017;50.124;8.688;2022-07-23T01:39:01;3.22;;;1.45;;
31386;SDS011;18017;50.124;8.688;2022-07-23T01:41:27;2.45;;;2.00;;
31386;SDS011;18017;50.124;8.688;2022-07-23T01:43:53;2.75;;;1.65;;
31386;SDS011;18017;50.124;8.688;2022-07-23T01:46:18;4.40;;;1.88;;
31386;SDS011;18017;50.124;8.688;2022-07-23T01:48:44;2.72;;;1.58;;
31386;SDS011;18017;50.124;8.688;2022-07-23T01:51:09;3.33;;;1.52;;
31386;SDS011;18017;50.124;8.688;2022-07-23T01:53:35;5.45;;;2.13;;
31386;SDS011;18017;50.124;8.688;2022-07-23T01:56:01;5.90;;;1.80;;
31386;SDS011;18017;50.124;8.688;2022-07-23T01:58:28;3.95;;;1.70;;
31386;SDS011;18017;50.124;8.688;2022-07-23T02:00:54;2.70;;;1.52;;
31386;SDS011;18017;50.124;8.688;2022-07-23T02:03:20;3.05;;;1.60;;
31386;SDS011;18017;50.124;8.688;2022-07-23T02:05:46;2.92;;;1.75;;
31386;SDS011;18017;50.124;8.688;2022-07-23T02:08:12;6.82;;;1.80;;
31386;SDS011;18017;50.124;8.688;2022-07-23T02:10:37;2.55;;;1.80;;
31386;SDS011;18017;50.124;8.688;2022-07-23T02:13:03;4.63;;;1.80;;
31386;SDS011;18017;50.124;8.688;2022-07-23T02:15:28;4.18;;;2.03;;
31386;SDS011;18017;50.124;8.688;2022-07-23T02:17:54;4.78;;;2.10;;
31386;SDS011;18017;50.124;8.688;2022-07-23T02:20:20;3.45;;;1.80;;
31386;SDS011;18017;50.124;8.688;2022-07-23T02:22:46;3.28;;;1.60;;
31386;SDS011;18017;50.124;8.688;2022-07-23T02:25:12;4.90;;;1.90;;
31386;SDS011;18017;50.124;8.688;2022-07-23T02:27:37;2.15;;;1.80;;
31386;SDS011;18017;50.124;8.688;2022-07-23T02:30:03;4.22;;;2.05;;
31386;SDS011;18017;50.124;8.688;2022-07-23T02:32:30;3.35;;;1.80;;
31386;SDS011;18017;50.124;8.688;2022-07-23T02:34:55;5.50;;;2.00;;
31386;SDS011;18017;50.124;8.688;2022-07-23T02:37:21;5.38;;;1.83;;
31386;SDS011;18017;50.124;8.688;2022-07-23T02:39:47;3.08;;;1.55;;
31386;SDS011;18017;50.124;8.688;2022-07-23T02:42:13;4.60;;;1.70;;
31386;SDS011;18017;50.124;8.688;2022-07-23T02:44:39;9.32;;;1.88;;
31386;SDS011;18017;50.124;8.688;2022-07-23T02:47:05;3.35;;;2.08;;
31386;SDS011;18017;50.124;8.688;2022-07-23T02:49:30;2.50;;;1.80;;
31386;SDS011;18017;50.124;8.688;2022-07-23T02:51:56;5.85;;;1.92;;
31386;SDS011;18017;50.124;8.688;2022-07-23T02:54:21;3.20;;;1.70;;
31386;SDS011;18017;50.124;8.688;2022-07-23T02:56:47;9.65;;;1.90;;
31386;SDS011;18017;50.124;8.688;2022-07-23T02:59:13;2.58;;;1.77;;
31386;SDS011;18017;50.124;8.688;2022-07-23T03:01:38;3.50;;;1.67;;
31386;SDS011;18017;50.124;8.688;2022-07-23T03:04:04;4.40;;;1.80;;
31386;SDS011;18017;50.124;8.688;2022-07-23T03:06:30;4.72;;;1.70;;
31386;SDS011;18017;50.124;8.688;2022-07-23T03:08:55;3.60;;;1.70;;
31386;SDS011;18017;50.124;8.688;2022-07-23T03:11:21;3.45;;;1.75;;
31386;SDS011;18017;50.124;8.688;2022-07-23T03:13:47;3.72;;;1.75;;
31386;SDS011;18017;50.124;8.688;2022-07-23T03:16:12;3.33;;;1.90;;
31386;SDS011;18017;50.124;8.688;2022-07-23T03:18:38;5.40;;;2.40;;
31386;SDS011;18017;50.124;8.688;2022-07-23T03:21:03;3.60;;;1.80;;
31386;SDS011;18017;50.124;8.688;2022-07-23T03:23:29;2.75;;;1.85;;
31386;SDS011;18017;50.124;8.688;2022-07-23T03:25:55;4.70;;;2.00;;
31386;SDS011;18017;50.124;8.688;2022-07-23T03:28:20;2.00;;;1.50;;
31386;SDS011;18017;50.124;8.688;2022-07-23T03:30:46;3.88;;;1.67;;
31386;SDS011;18017;50.124;8.688;2022-07-23T03:33:13;4.30;;;2.35;;
31386;SDS011;18017;50.124;8.688;2022-07-23T03:35:39;3.13;;;1.88;;
31386;SDS011;18017;50.124;8.688;2022-07-23T03:38:05;3.60;;;2.10;;
31386;SDS011;18017;50.124;8.688;2022-07-23T03:40:31;3.78;;;2.28;;
31386;SDS011;18017;50.124;8.688;2022-07-23T03:42:56;4.88;;;2.33;;
31386;SDS011;18017;50.124;8.688;2022-07-23T03:45:22;4.00;;;2.15;;
31386;SDS011;18017;50.124;8.688;2022-07-23T03:47:47;3.85;;;2.50;;
31386;SDS011;18017;50.124;8.688;2022-07-23T03:50:13;3.97;;;2.40;;
31386;SDS011;18017;50.124;8.688;2022-07-23T03:52:39;3.38;;;2.15;;
31386;SDS011;18017;50.124;8.688;2022-07-23T03:55:07;3.22;;;2.13;;
31386;SDS011;18017;50.124;8.688;2022-07-23T03:57:33;5.72;;;2.17;;
31386;SDS011;18017;50.124;8.688;2022-07-23T03:59:58;4.35;;;2.30;;
31386;SDS011;18017;50.124;8.688;2022-07-23T04:02:27;3.28;;;2.28;;
31386;SDS011;18017;50.124;8.688;2022-07-23T04:04:53;4.88;;;2.55;;
31386;SDS011;18017;50.124;8.688;2022-07-23T04:07:18;3.50;;;2.20;;
31386;SDS011;18017;50.124;8.688;2022-07-23T04:09:47;3.63;;;2.28;;
31386;SDS011;18017;50.124;8.688;2022-07-23T04:12:12;4.68;;;2.25;;
31386;SDS011;18017;50.124;8.688;2022-07-23T04:14:38;4.22;;;2.45;;
31386;SDS011;18017;50.124;8.688;2022-07-23T04:17:04;4.55;;;2.25;;
31386;SDS011;18017;50.124;8.688;2022-07-23T04:19:29;4.68;;;2.50;;
31386;SDS011;18017;50.124;8.688;2022-07-23T04:21:55;3.88;;;2.40;;
31386;SDS011;18017;50.124;8.688;2022-07-23T04:24:21;6.35;;;2.40;;
31386;SDS011;18017;50.124;8.688;2022-07-23T04:26:47;6.45;;;2.50;;
31386;SDS011;18017;50.124;8.688;2022-07-23T04:29:12;6.05;;;2.15;;
31386;SDS011;18017;50.124;8.688;2022-07-23T04:31:38;4.63;;;2.53;;
31386;SDS011;18017;50.124;8.688;2022-07-23T04:34:04;3.47;;;2.50;;
31386;SDS011;18017;50.124;8.688;2022-07-23T04:36:29;5.95;;;2.58;;
31386;SDS011;18017;50.124;8.688;2022-07-23T04:38:55;5.47;;;2.33;;
31386;SDS011;18017;50.124;8.688;2022-07-23T04:41:20;5.25;;;2.47;;
31386;SDS011;18017;50.124;8.688;2022-07-23T04:43:46;3.60;;;2.47;;
31386;SDS011;18017;50.124;8.688;2022-07-23T04:46:12;2.88;;;2.35;;
31386;SDS011;18017;50.124;8.688;2022-07-23T04:48:37;4.38;;;2.35;;
31386;SDS011;18017;50.124;8.688;2022-07-23T04:51:03;5.13;;;2.20;;
31386;SDS011;18017;50.124;8.688;2022-07-23T04:53:29;5.80;;;2.70;;
31386;SDS011;18017;50.124;8.688;2022-07-23T04:55:55;5.85;;;2.60;;
31386;SDS011;18017;50.124;8.688;2022-07-23T04:58:21;4.30;;;2.22;;
31386;SDS011;18017;50.124;8.688;2022-07-23T05:00:47;5.53;;;2.33;;
31386;SDS011;18017;50.124;8.688;2022-07-23T05:03:13;5.15;;;2.38;;
31386;SDS011;18017;50.124;8.688;2022-07-23T05:05:38;5.60;;;2.50;;
31386;SDS011;18017;50.124;8.688;2022-07-23T05:08:04;2.95;;;1.90;;
31386;SDS011;18017;50.124;8.688;2022-07-23T05:10:30;3.13;;;1.95;;
31386;SDS011;18017;50.124;8.688;2022-07-23T05:12:55;4.07;;;2.40;;
31386;SDS011;18017;50.124;8.688;2022-07-23T05:15:21;6.70;;;2.53;;
31386;SDS011;18017;50.124;8.688;2022-07-23T05:17:46;3.67;;;2.28;;
31386;SDS011;18017;50.124;8.688;2022-07-23T05:20:12;6.32;;;2.45;;
31386;SDS011;18017;50.124;8.688;2022-07-23T05:22:38;3.90;;;2.45;;
31386;SDS011;18017;50.124;8.688;2022-07-23T05:25:04;4.72;;;2.20;;
31386;SDS011;18017;50.124;8.688;2022-07-23T05:27:30;4.60;;;2.47;;
31386;SDS011;18017;50.124;8.688;2022-07-23T05:29:56;4.78;;;2.80;;
31386;SDS011;18017;50.124;8.688;2022-07-23T05:32:22;5.75;;;2.65;;
31386;SDS011;18017;50.124;8.688;2022-07-23T05:34:48;4.55;;;2.63;;
31386;SDS011;18017;50.124;8.688;2022-07-23T05:37:13;6.38;;;2.70;;
31386;SDS011;18017;50.124;8.688;2022-07-23T05:39:39;4.93;;;2.58;;
31386;SDS011;18017;50.124;8.688;2022-07-23T05:42:05;6.25;;;2.80;;
31386;SDS011;18017;50.124;8.688;2022-07-23T05:44:30;5.65;;;2.63;;
31386;SDS011;18017;50.124;8.688;2022-07-23T05:46:56;4.75;;;2.70;;
31386;SDS011;18017;50.124;8.688;2022-07-23T05:49:21;7.53;;;2.90;;
31386;SDS011;18017;50.124;8.688;2022-07-23T05:51:47;8.15;;;3.17;;
31386;SDS011;18017;50.124;8.688;2022-07-23T05:54:16;5.72;;;2.45;;
31386;SDS011;18017;50.124;8.688;2022-07-23T05:56:44;6.22;;;2.63;;
31386;SDS011;18017;50.124;8.688;2022-07-23T05:59:09;4.50;;;2.80;;
31386;SDS011;18017;50.124;8.688;2022-07-23T06:01:37;3.38;;;2.40;;
31386;SDS011;18017;50.124;8.688;2022-07-23T06:04:02;7.45;;;2.97;;
31386;SDS011;18017;50.124;8.688;2022-07-23T06:06:28;6.75;;;2.65;;
31386;SDS011;18017;50.124;8.688;2022-07-23T06:08:53;6.25;;;2.72;;
31386;SDS011;18017;50.124;8.688;2022-07-23T06:11:19;5.45;;;2.33;;
31386;SDS011;18017;50.124;8.688;2022-07-23T06:13:45;4.45;;;2.25;;
31386;SDS011;18017;50.124;8.688;2022-07-23T06:16:10;5.38;;;2.65;;
31386;SDS011;18017;50.124;8.688;2022-07-23T06:18:36;5.53;;;2.22;;
31386;SDS011;18017;50.124;8.688;2022-07-23T06:21:01;4.25;;;2.28;;
31386;SDS011;18017;50.124;8.688;2022-07-23T06:23:27;5.82;;;2.42;;
31386;SDS011;18017;50.124;8.688;2022-07-23T06:25:52;5.38;;;2.40;;
31386;SDS011;18017;50.124;8.688;2022-07-23T06:28:39;5.47;;;2.10;;
31386;SDS011;18017;50.124;8.688;2022-07-23T06:31:04;3.47;;;2.22;;
31386;SDS011;18017;50.124;8.688;2022-07-23T06:33:29;4.80;;;2.03;;
31386;SDS011;18017;50.124;8.688;2022-07-23T06:35:55;5.78;;;2.08;;
31386;SDS011;18017;50.124;8.688;2022-07-23T06:38:20;5.05;;;2.15;;
31386;SDS011;18017;50.124;8.688;2022-07-23T06:40:46;4.78;;;1.80;;
31386;SDS011;18017;50.124;8.688;2022-07-23T06:43:12;4.75;;;1.90;;
31386;SDS011;18017;50.124;8.688;2022-07-23T06:45:37;4.32;;;1.77;;
31386;SDS011;18017;50.124;8.688;2022-07-23T06:48:03;3.42;;;1.80;;
31386;SDS011;18017;50.124;8.688;2022-07-23T06:50:28;4.05;;;1.50;;
31386;SDS011;18017;50.124;8.688;2022-07-23T06:52:54;2.67;;;1.48;;
31386;SDS011;18017;50.124;8.688;2022-07-23T06:55:20;2.75;;;1.58;;
31386;SDS011;18017;50.124;8.688;2022-07-23T06:57:45;5.05;;;1.65;;
31386;SDS011;18017;50.124;8.688;2022-07-23T07:00:11;3.53;;;1.33;;
31386;SDS011;18017;50.124;8.688;2022-07-23T07:02:37;4.03;;;1.33;;
31386;SDS011;18017;50.124;8.688;2022-07-23T07:05:02;2.67;;;0.93;;
31386;SDS011;18017;50.124;8.688;2022-07-23T07:07:28;2.50;;;1.10;;
31386;SDS011;18017;50.124;8.688;2022-07-23T07:09:54;2.03;;;1.17;;
31386;SDS011;18017;50.124;8.688;2022-07-23T07:12:19;2.42;;;1.08;;
31386;SDS011;18017;50.124;8.688;2022-07-23T07:14:45;4.32;;;1.08;;
31386;SDS011;18017;50.124;8.688;2022-07-23T07:17:11;4.82;;;1.20;;
31386;SDS011;18017;50.124;8.688;2022-07-23T07:19:36;3.95;;;1.25;;
31386;SDS011;18017;50.124;8.688;2022-07-23T07:22:02;3.15;;;1.17;;
31386;SDS011;18017;50.124;8.688;2022-07-23T07:24:27;2.65;;;1.20;;
31386;SDS011;18017;50.124;8.688;2022-07-23T07:26:53;4.53;;;1.42;;
31386;SDS011;18017;50.124;8.688;2022-07-23T07:29:19;2.42;;;1.15;;
31386;SDS011;18017;50.124;8.688;2022-07-23T07:31:44;2.60;;;1.15;;
31386;SDS011;18017;50.124;8.688;2022-07-23T07:34:10;2.78;;;1.25;;
31386;SDS011;18017;50.124;8.688;2022-07-23T07:36:38;1.90;;;1.00;;
31386;SDS011;18017;50.124;8.688;2022-07-23T07:39:04;2.67;;;1.20;;
31386;SDS011;18017;50.124;8.688;2022-07-23T07:41:30;3.17;;;1.02;;
31386;SDS011;18017;50.124;8.688;2022-07-23T07:43:56;2.97;;;1.10;;
31386;SDS011;18017;50.124;8.688;2022-07-23T07:46:24;3.83;;;1.23;;
31386;SDS011;18017;50.124;8.688;2022-07-23T07:48:52;2.17;;;0.95;;
31386;SDS011;18017;50.124;8.688;2022-07-23T07:51:18;2.72;;;0.90;;
31386;SDS011;18017;50.124;8.688;2022-07-23T07:53:44;1.77;;;1.05;;
31386;SDS011;18017;50.124;8.688;2022-07-23T07:56:09;2.95;;;1.17;;
31386;SDS011;18017;50.124;8.688;2022-07-23T07:58:35;1.92;;;0.85;;
31386;SDS011;18017;50.124;8.688;2022-07-23T08:01:00;2.95;;;0.80;;
31386;SDS011;18017;50.124;8.688;2022-07-23T08:03:27;4.10;;;0.80;;
31386;SDS011;18017;50.124;8.688;2022-07-23T08:05:53;2.45;;;0.80;;
31386;SDS011;18017;50.124;8.688;2022-07-23T08:08:18;1.23;;;0.70;;
31386;SDS011;18017;50.124;8.688;2022-07-23T08:10:44;2.40;;;0.70;;
31386;SDS011;18017;50.124;8.688;2022-07-23T08:13:12;9.10;;;1.02;;
31386;SDS011;18017;50.124;8.688;2022-07-23T08:15:39;3.08;;;0.68;;
31386;SDS011;18017;50.124;8.688;2022-07-23T08:18:05;3.67;;;0.60;;
31386;SDS011;18017;50.124;8.688;2022-07-23T08:20:31;2.28;;;0.60;;
31386;SDS011;18017;50.124;8.688;2022-07-23T08:22:57;2.28;;;0.60;;
31386;SDS011;18017;50.124;8.688;2022-07-23T08:25:34;2.08;;;0.70;;
31386;SDS011;18017;50.124;8.688;2022-07-23T08:28:05;2.13;;;0.75;;
31386;SDS011;18017;50.124;8.688;2022-07-23T08:30:32;1.23;;;0.75;;
31386;SDS011;18017;50.124;8.688;2022-07-23T08:32:59;1.38;;;0.60;;
31386;SDS011;18017;50.124;8.688;2022-07-23T08:35:47;2.20;;;0.70;;
31386;SDS011;18017;50.124;8.688;2022-07-23T08:38:16;2.33;;;0.68;;
31386;SDS011;18017;50.124;8.688;2022-07-23T08:40:47;2.05;;;0.50;;
31386;SDS011;18017;50.124;8.688;2022-07-23T08:43:14;3.22;;;0.50;;
31386;SDS011;18017;50.124;8.688;2022-07-23T08:45:46;2.45;;;0.55;;
31386;SDS011;18017;50.124;8.688;2022-07-23T08:48:14;0.90;;;0.68;;
31386;SDS011;18017;50.124;8.688;2022-07-23T08:50:45;1.52;;;0.40;;
31386;SDS011;18017;50.124;8.688;2022-07-23T08:53:13;1.63;;;0.40;;
31386;SDS011;18017;50.124;8.688;2022-07-23T08:55:42;4.65;;;0.75;;
31386;SDS011;18017;50.124;8.688;2022-07-23T08:58:12;0.77;;;0.50;;
31386;SDS011;18017;50.124;8.688;2022-07-23T09:00:38;1.33;;;0.50;;
31386;SDS011;18017;50.124;8.688;2022-07-23T09:03:03;1.23;;;0.50;;
31386;SDS011;18017;50.124;8.688;2022-07-23T09:05:29;1.35;;;0.40;;
31386;SDS011;18017;50.124;8.688;2022-07-23T09:10:54;0.95;;;0.50;;
31386;SDS011;18017;50.124;8.688;2022-07-23T09:16:17;1.83;;;0.50;;
31386;SDS011;18017;50.124;8.688;2022-07-23T09:19:09;1.88;;;0.50;;
31386;SDS011;18017;50.124;8.688;2022-07-23T09:21:37;0.30;;;0.30;;
31386;SDS011;18017;50.124;8.688;2022-07-23T09:24:07;1.02;;;0.50;;
31386;SDS011;18017;50.124;8.688;2022-07-23T09:26:43;2.00;;;0.40;;
31386;SDS011;18017;50.124;8.688;2022-07-23T09:29:12;2.05;;;0.47;;
31386;SDS011;18017;50.124;8.688;2022-07-23T09:34:21;2.88;;;0.40;;
31386;SDS011;18017;50.124;8.688;2022-07-23T09:36:47;3.80;;;0.40;;
31386;SDS011;18017;50.124;8.688;2022-07-23T09:39:14;1.58;;;0.32;;
31386;SDS011;18017;50.124;8.688;2022-07-23T09:41:46;0.80;;;0.40;;
31386;SDS011;18017;50.124;8.688;2022-07-23T09:44:16;0.85;;;0.40;;
31386;SDS011;18017;50.124;8.688;2022-07-23T09:46:43;1.10;;;0.40;;
31386;SDS011;18017;50.124;8.688;2022-07-23T09:49:22;0.93;;;0.47;;
31386;SDS011;18017;50.124;8.688;2022-07-23T09:51:53;0.88;;;0.40;;
31386;SDS011;18017;50.124;8.688;2022-07-23T09:54:34;1.70;;;0.50;;
31386;SDS011;18017;50.124;8.688;2022-07-23T09:57:06;2.13;;;0.50;;
31386;SDS011;18017;50.124;8.688;2022-07-23T09:59:43;0.70;;;0.38;;
31386;SDS011;18017;50.124;8.688;2022-07-23T10:02:11;2.22;;;0.60;;
31386;SDS011;18017;50.124;8.688;2022-07-23T10:04:38;2.80;;;0.50;;
31386;SDS011;18017;50.124;8.688;2022-07-23T10:07:07;2.75;;;0.50;;
31386;SDS011;18017;50.124;8.688;2022-07-23T10:09:38;1.65;;;0.63;;
31386;SDS011;18017;50.124;8.688;2022-07-23T10:12:09;1.97;;;0.40;;
31386;SDS011;18017;50.124;8.688;2022-07-23T10:14:44;0.85;;;0.40;;
31386;SDS011;18017;50.124;8.688;2022-07-23T10:17:11;1.90;;;0.70;;
31386;SDS011;18017;50.124;8.688;2022-07-23T10:19:37;1.50;;;0.55;;
31386;SDS011;18017;50.124;8.688;2022-07-23T10:22:04;2.17;;;0.52;;
31386;SDS011;18017;50.124;8.688;2022-07-23T10:24:52;2.55;;;0.40;;
31386;SDS011;18017;50.124;8.688;2022-07-23T10:27:51;1.50;;;0.50;;
31386;SDS011;18017;50.124;8.688;2022-07-23T10:41:10;0.70;;;0.30;;
31386;SDS011;18017;50.124;8.688;2022-07-23T10:43:39;1.20;;;0.40;;
31386;SDS011;18017;50.124;8.688;2022-07-23T10:46:21;2.33;;;0.43;;
31386;SDS011;18017;50.124;8.688;2022-07-23T10:54:53;1.30;;;0.30;;
31386;SDS011;18017;50.124;8.688;2022-07-23T10:58:05;1.52;;;0.30;;
31386;SDS011;18017;50.124;8.688;2022-07-23T11:00:14;1.75;;;0.55;;
31386;SDS011;18017;50.124;8.688;2022-07-23T11:02:55;1.25;;;0.43;;
31386;SDS011;18017;50.124;8.688;2022-07-23T11:05:24;0.80;;;0.30;;
31386;SDS011;18017;50.124;8.688;2022-07-23T11:24:00;1.60;;;0.43;;
31386;SDS011;18017;50.124;8.688;2022-07-23T11:37:04;0.90;;;0.40;;
31386;SDS011;18017;50.124;8.688;2022-07-23T11:39:31;0.93;;;0.25;;
31386;SDS011;18017;50.124;8.688;2022-07-23T11:41:58;1.25;;;0.60;;
31386;SDS011;18017;50.124;8.688;2022-07-23T11:44:25;1.85;;;0.50;;
31386;SDS011;18017;50.124;8.688;2022-07-23T11:46:57;1.67;;;0.40;;
31386;SDS011;18017;50.124;8.688;2022-07-23T11:49:24;0.77;;;0.30;;
31386;SDS011;18017;50.124;8.688;2022-07-23T11:54:37;1.27;;;0.40;;
31386;SDS011;18017;50.124;8.688;2022-07-23T11:57:15;1.40;;;0.50;;
31386;SDS011;18017;50.124;8.688;2022-07-23T11:59:42;2.90;;;0.40;;
31386;SDS011;18017;50.124;8.688;2022-07-23T12:02:08;2.55;;;0.30;;
31386;SDS011;18017;50.124;8.688;2022-07-23T12:04:41;1.48;;;0.40;;
31386;SDS011;18017;50.124;8.688;2022-07-23T12:10:09;2.00;;;0.30;;
31386;SDS011;18017;50.124;8.688;2022-07-23T12:13:08;3.38;;;0.47;;
31386;SDS011;18017;50.124;8.688;2022-07-23T12:15:38;0.63;;;0.30;;
31386;SDS011;18017;50.124;8.688;2022-07-23T12:18:07;0.90;;;0.40;;
31386;SDS011;18017;50.124;8.688;2022-07-23T12:20:35;3.78;;;0.40;;
31386;SDS011;18017;50.124;8.688;2022-07-23T12:23:12;0.80;;;0.28;;
31386;SDS011;18017;50.124;8.688;2022-07-23T12:25:42;1.00;;;0.47;;
31386;SDS011;18017;50.124;8.688;2022-07-23T12:28:11;0.75;;;0.30;;
31386;SDS011;18017;50.124;8.688;2022-07-23T12:35:55;1.90;;;0.50;;
31386;SDS011;18017;50.124;8.688;2022-07-23T12:38:26;1.30;;;0.40;;
31386;SDS011;18017;50.124;8.688;2022-07-23T12:40:54;1.20;;;0.40;;
31386;SDS011;18017;50.124;8.688;2022-07-23T12:43:28;0.98;;;0.30;;
31386;SDS011;18017;50.124;8.688;2022-07-23T12:48:28;1.48;;;0.60;;
31386;SDS011;18017;50.124;8.688;2022-07-23T12:51:07;1.48;;;0.50;;
31386;SDS011;18017;50.124;8.688;2022-07-23T12:53:53;3.63;;;0.60;;
31386;SDS011;18017;50.124;8.688;2022-07-23T12:56:30;1.60;;;0.55;;
31386;SDS011;18017;50.124;8.688;2022-07-23T13:01:31;1.40;;;0.60;;
31386;SDS011;18017;50.124;8.688;2022-07-23T13:04:09;1.98;;;0.50;;
31386;SDS011;18017;50.124;8.688;2022-07-23T13:06:45;3.30;;;0.70;;
31386;SDS011;18017;50.124;8.688;2022-07-23T13:09:28;2.45;;;0.88;;
31386;SDS011;18017;50.124;8.688;2022-07-23T13:11:55;0.80;;;0.45;;
31386;SDS011;18017;50.124;8.688;2022-07-23T13:14:21;0.85;;;0.50;;
31386;SDS011;18017;50.124;8.688;2022-07-23T13:16:49;1.02;;;0.60;;
31386;SDS011;18017;50.124;8.688;2022-07-23T13:19:15;2.10;;;0.80;;
31386;SDS011;18017;50.124;8.688;2022-07-23T13:21:42;1.50;;;0.63;;
31386;SDS011;18017;50.124;8.688;2022-07-23T13:24:08;2.85;;;0.77;;
31386;SDS011;18017;50.124;8.688;2022-07-23T13:26:35;2.58;;;0.80;;
31386;SDS011;18017;50.124;8.688;2022-07-23T13:29:02;1.60;;;0.80;;
31386;SDS011;18017;50.124;8.688;2022-07-23T13:31:28;1.50;;;0.70;;
31386;SDS011;18017;50.124;8.688;2022-07-23T13:33:53;2.28;;;0.80;;
31386;SDS011;18017;50.124;8.688;2022-07-23T13:36:19;2.95;;;0.95;;
31386;SDS011;18017;50.124;8.688;2022-07-23T13:38:44;4.07;;;1.00;;
31386;SDS011;18017;50.124;8.688;2022-07-23T13:41:10;1.55;;;0.90;;
31386;SDS011;18017;50.124;8.688;2022-07-23T13:43:35;1.40;;;0.80;;
31386;SDS011;18017;50.124;8.688;2022-07-23T13:46:01;2.60;;;0.90;;
31386;SDS011;18017;50.124;8.688;2022-07-23T13:48:27;1.38;;;0.70;;
31386;SDS011;18017;50.124;8.688;2022-07-23T13:50:54;2.83;;;0.77;;
31386;SDS011;18017;50.124;8.688;2022-07-23T13:53:21;1.33;;;0.55;;
31386;SDS011;18017;50.124;8.688;2022-07-23T13:55:49;2.20;;;0.82;;
31386;SDS011;18017;50.124;8.688;2022-07-23T13:58:16;2.88;;;0.93;;
31386;SDS011;18017;50.124;8.688;2022-07-23T14:00:43;2.63;;;0.80;;
31386;SDS011;18017;50.124;8.688;2022-07-23T14:03:10;2.70;;;0.80;;
31386;SDS011;18017;50.124;8.688;2022-07-23T14:05:39;2.72;;;0.60;;
31386;SDS011;18017;50.124;8.688;2022-07-23T14:08:05;2.47;;;0.80;;
31386;SDS011;18017;50.124;8.688;2022-07-23T14:10:34;3.50;;;0.80;;
31386;SDS011;18017;50.124;8.688;2022-07-23T14:13:00;2.90;;;0.90;;
31386;SDS011;18017;50.124;8.688;2022-07-23T14:15:27;2.03;;;0.98;;
31386;SDS011;18017;50.124;8.688;2022-07-23T14:17:54;1.20;;;0.75;;
31386;SDS011;18017;50.124;8.688;2022-07-23T14:20:20;1.88;;;0.70;;
31386;SDS011;18017;50.124;8.688;2022-07-23T14:22:46;2.35;;;0.80;;
31386;SDS011;18017;50.124;8.688;2022-07-23T14:25:12;2.35;;;0.80;;
31386;SDS011;18017;50.124;8.688;2022-07-23T14:27:38;2.42;;;0.77;;
31386;SDS011;18017;50.124;8.688;2022-07-23T14:30:07;1.05;;;0.68;;
31386;SDS011;18017;50.124;8.688;2022-07-23T14:32:34;2.20;;;0.63;;
31386;SDS011;18017;50.124;8.688;2022-07-23T14:35:00;1.58;;;0.90;;
31386;SDS011;18017;50.124;8.688;2022-07-23T14:37:26;1.00;;;0.80;;
31386;SDS011;18017;50.124;8.688;2022-07-23T14:39:51;2.63;;;0.80;;
31386;SDS011;18017;50.124;8.688;2022-07-23T14:42:17;1.80;;;0.80;;
31386;SDS011;18017;50.124;8.688;2022-07-23T14:44:43;1.55;;;0.90;;
31386;SDS011;18017;50.124;8.688;2022-07-23T14:47:09;10.52;;;1.15;;
31386;SDS011;18017;50.124;8.688;2022-07-23T14:49:35;2.85;;;0.82;;
31386;SDS011;18017;50.124;8.688;2022-07-23T14:52:01;1.95;;;0.90;;
31386;SDS011;18017;50.124;8.688;2022-07-23T14:54:27;1.20;;;0.88;;
31386;SDS011;18017;50.124;8.688;2022-07-23T14:56:56;2.00;;;0.80;;
31386;SDS011;18017;50.124;8.688;2022-07-23T14:59:27;2.72;;;1.00;;
31386;SDS011;18017;50.124;8.688;2022-07-23T15:01:53;4.20;;;1.02;;
31386;SDS011;18017;50.124;8.688;2022-07-23T15:04:19;2.03;;;0.80;;
31386;SDS011;18017;50.124;8.688;2022-07-23T15:06:45;4.55;;;1.15;;
31386;SDS011;18017;50.124;8.688;2022-07-23T15:09:10;3.15;;;0.80;;
31386;SDS011;18017;50.124;8.688;2022-07-23T15:11:36;4.20;;;0.82;;
31386;SDS011;18017;50.124;8.688;2022-07-23T15:14:06;2.53;;;0.82;;
31386;SDS011;18017;50.124;8.688;2022-07-23T15:16:33;1.42;;;0.90;;
31386;SDS011;18017;50.124;8.688;2022-07-23T15:18:59;3.25;;;1.00;;
31386;SDS011;18017;50.124;8.688;2022-07-23T15:21:26;2.70;;;0.95;;
31386;SDS011;18017;50.124;8.688;2022-07-23T15:23:54;2.28;;;1.00;;
31386;SDS011;18017;50.124;8.688;2022-07-23T15:26:29;2.90;;;1.15;;
31386;SDS011;18017;50.124;8.688;2022-07-23T15:28:55;1.92;;;0.73;;
31386;SDS011;18017;50.124;8.688;2022-07-23T15:31:23;3.33;;;1.00;;
31386;SDS011;18017;50.124;8.688;2022-07-23T15:33:49;1.88;;;0.93;;
31386;SDS011;18017;50.124;8.688;2022-07-23T15:36:17;2.00;;;0.70;;
31386;SDS011;18017;50.124;8.688;2022-07-23T15:38:47;1.60;;;0.73;;
31386;SDS011;18017;50.124;8.688;2022-07-23T15:41:12;2.20;;;0.88;;
31386;SDS011;18017;50.124;8.688;2022-07-23T15:43:38;2.95;;;0.90;;
31386;SDS011;18017;50.124;8.688;2022-07-23T15:46:04;3.08;;;1.10;;
31386;SDS011;18017;50.124;8.688;2022-07-23T15:48:30;2.40;;;1.02;;
31386;SDS011;18017;50.124;8.688;2022-07-23T15:50:58;2.42;;;0.80;;
31386;SDS011;18017;50.124;8.688;2022-07-23T15:53:24;2.47;;;0.70;;
31386;SDS011;18017;50.124;8.688;2022-07-23T15:55:49;2.42;;;0.90;;
31386;SDS011;18017;50.124;8.688;2022-07-23T15:58:15;1.30;;;0.82;;